Medi Chiba — 3FUD5 — position and weather

sailwx.info

Track history (hours):
 
Tides and Currents Weather Stations Pressure Air Temp Water Temp Dewpoint Dewpoint Depression Visibility Wind Speed Wind Dir Waves Ship Positions

Medi Chiba

Last reported at 2018-Jan-01 11:59 UTC. Time now 2018-Jan-20 05:34 UTC.
Position S 28°49' E 032°03'.
Warning: this ship's position is 18 days out of date.

Length 229 m; draft 6.5 m.

Type: Cargo ship. MMSI: 356242000.

Date/timePositionNaut miles runAvg speedWind from/ knotsBaromVisibWave heightAir tempDewpointWater temp
2018-Jan-01 11:59S 28°49' E 032°03'0 0.0
2018-Jan-01 11:29S 28°49' E 032°03'0 0.0
2018-Jan-01 10:59S 28°49' E 032°03'0 0.0
2018-Jan-01 10:29S 28°49' E 032°03'0 0.0
2018-Jan-01 09:59S 28°49' E 032°03'0 0.0
2018-Jan-01 09:29S 28°49' E 032°03'0 0.0
2018-Jan-01 08:29S 28°49' E 032°03'0 0.0
2018-Jan-01 05:17S 28°49' E 032°03'0 0.0
2017-Dec-31 17:14S 28°49' E 032°03'0 0.0
2017-Dec-31 16:11S 28°49' E 032°03'0 0.0
2017-Dec-31 15:47S 28°49' E 032°03'0 0.0
2017-Dec-31 15:23S 28°49' E 032°03'0 0.0
2017-Dec-31 14:53S 28°49' E 032°03'0 0.0
2017-Dec-31 14:26S 28°49' E 032°03'0 0.0
2017-Dec-31 13:05S 28°49' E 032°03'0 0.1
2017-Dec-31 12:59S 28°49' E 032°03'0 0.0
2017-Dec-31 12:05S 28°49' E 032°03'0 0.1
2017-Dec-31 11:59S 28°49' E 032°03'15 0.7
2017-Dec-30 13:58S 28°54' E 032°19'0 0.5
2017-Dec-30 13:17S 28°54' E 032°19'0 0.3
2017-Dec-30 12:55S 28°54' E 032°19'5 0.2
2017-Dec-29 13:08S 28°53' E 032°13'0 0.1
2017-Dec-29 12:08S 28°53' E 032°13'0 0.2
2017-Dec-29 11:56S 28°53' E 032°13'0 0.0
2017-Dec-29 11:26S 28°53' E 032°13'6 0.3
2017-Dec-28 11:27S 28°57' E 032°19'1 1.7
2017-Dec-28 10:48S 28°56' E 032°20'1 1.7
2017-Dec-28 10:30S 28°56' E 032°21'2 1.7
2017-Dec-28 09:22S 28°54' E 032°21'10 1.4
2017-Dec-28 02:06S 29°04' E 032°19'  
2017-Dec-24 18:35S 29°00' E 032°10'0 0.0
2017-Dec-23 14:15S 29°00' E 032°10'0 0.0
2017-Dec-23 14:00S 29°00' E 032°10'0 0.1
2017-Dec-23 10:54S 29°00' E 032°09'  
Track history (hours):
 
Tides and Currents Weather Stations Pressure Air Temp Water Temp Dewpoint Dewpoint Depression Visibility Wind Speed Wind Dir Waves Ship Positions

Medi Chiba

Last reported at 2018-Jan-01 11:59 UTC. Time now 2018-Jan-20 05:34 UTC.
Position S 28°49' E 032°03'.
Warning: this ship's position is 18 days out of date.

Length 229 m; draft 6.5 m.

Type: Cargo ship. MMSI: 356242000.

Date/timePositionNaut miles runAvg speedWind from/ knotsBaromVisibWave heightAir tempDewpointWater temp
2018-Jan-01 11:59S 28°49' E 032°03'0 0.0
2018-Jan-01 11:29S 28°49' E 032°03'0 0.0
2018-Jan-01 10:59S 28°49' E 032°03'0 0.0
2018-Jan-01 10:29S 28°49' E 032°03'0 0.0
2018-Jan-01 09:59S 28°49' E 032°03'0 0.0
2018-Jan-01 09:29S 28°49' E 032°03'0 0.0
2018-Jan-01 08:29S 28°49' E 032°03'0 0.0
2018-Jan-01 05:17S 28°49' E 032°03'0 0.0
2017-Dec-31 17:14S 28°49' E 032°03'0 0.0
2017-Dec-31 16:11S 28°49' E 032°03'0 0.0
2017-Dec-31 15:47S 28°49' E 032°03'0 0.0
2017-Dec-31 15:23S 28°49' E 032°03'0 0.0
2017-Dec-31 14:53S 28°49' E 032°03'0 0.0
2017-Dec-31 14:26S 28°49' E 032°03'0 0.0
2017-Dec-31 13:05S 28°49' E 032°03'0 0.1
2017-Dec-31 12:59S 28°49' E 032°03'0 0.0
2017-Dec-31 12:05S 28°49' E 032°03'0 0.1
2017-Dec-31 11:59S 28°49' E 032°03'15 0.7
2017-Dec-30 13:58S 28°54' E 032°19'0 0.5
2017-Dec-30 13:17S 28°54' E 032°19'0 0.3
2017-Dec-30 12:55S 28°54' E 032°19'5 0.2
2017-Dec-29 13:08S 28°53' E 032°13'0 0.1
2017-Dec-29 12:08S 28°53' E 032°13'0 0.2
2017-Dec-29 11:56S 28°53' E 032°13'0 0.0
2017-Dec-29 11:26S 28°53' E 032°13'6 0.3
2017-Dec-28 11:27S 28°57' E 032°19'1 1.7
2017-Dec-28 10:48S 28°56' E 032°20'1 1.7
2017-Dec-28 10:30S 28°56' E 032°21'2 1.7
2017-Dec-28 09:22S 28°54' E 032°21'10 1.4
2017-Dec-28 02:06S 29°04' E 032°19'  
2017-Dec-24 18:35S 29°00' E 032°10'0 0.0
2017-Dec-23 14:15S 29°00' E 032°10'0 0.0
2017-Dec-23 14:00S 29°00' E 032°10'0 0.1
2017-Dec-23 10:54S 29°00' E 032°09'  

Dump ship's entire track history